Edenburg, South Africa
Current Conditions -  °F | °C
As of 11:00 PM on Wednesday 17 Dec 2014 (Local Time) from FABL Reporting Station
NA  
Wind Chill: 63°   Ceiling: NA
Heat Index: 63°   Visibility: NA
Dew Point: 54°   Wind: 2mph
Humidity: 72%   Direction: 280°W
Pressure: 30.12"   Gusts: NA
Location:  29.74°S, 25.94°E
Report Text: FABL 172100Z AUTO 28002KT //// // ////// 17/12 Q1020
Loading
Personal Weather Stations






























Interactive Weather Map New forecast layout! Learn more

10-Day Weather Forecast

Advertisements
Track Severe Weather on mobile